sensor_id;sensor_type;location;lat;lon;timestamp;P1;durP1;ratioP1;P2;durP2;ratioP2
32760;SDS011;19126;47.472;7.850;2023-08-06T00:01:21;7.30;;;2.25;;
32760;SDS011;19126;47.472;7.850;2023-08-06T00:03:51;4.18;;;2.55;;
32760;SDS011;19126;47.472;7.850;2023-08-06T00:06:19;3.20;;;2.08;;
32760;SDS011;19126;47.472;7.850;2023-08-06T00:08:46;6.53;;;2.60;;
32760;SDS011;19126;47.472;7.850;2023-08-06T00:11:13;6.90;;;2.60;;
32760;SDS011;19126;47.472;7.850;2023-08-06T00:13:41;6.63;;;2.70;;
32760;SDS011;19126;47.472;7.850;2023-08-06T00:16:09;7.43;;;2.65;;
32760;SDS011;19126;47.472;7.850;2023-08-06T00:18:37;2.83;;;2.28;;
32760;SDS011;19126;47.472;7.850;2023-08-06T00:21:06;4.15;;;2.50;;
32760;SDS011;19126;47.472;7.850;2023-08-06T00:23:33;4.28;;;2.60;;
32760;SDS011;19126;47.472;7.850;2023-08-06T00:26:00;8.85;;;2.40;;
32760;SDS011;19126;47.472;7.850;2023-08-06T00:28:28;6.20;;;2.60;;
32760;SDS011;19126;47.472;7.850;2023-08-06T00:30:55;4.85;;;2.55;;
32760;SDS011;19126;47.472;7.850;2023-08-06T00:33:23;5.20;;;2.65;;
32760;SDS011;19126;47.472;7.850;2023-08-06T00:35:51;5.13;;;2.42;;
32760;SDS011;19126;47.472;7.850;2023-08-06T00:38:20;3.72;;;2.50;;
32760;SDS011;19126;47.472;7.850;2023-08-06T00:40:47;4.38;;;2.75;;
32760;SDS011;19126;47.472;7.850;2023-08-06T00:43:14;4.63;;;2.58;;
32760;SDS011;19126;47.472;7.850;2023-08-06T00:45:42;7.18;;;2.90;;
32760;SDS011;19126;47.472;7.850;2023-08-06T00:48:10;3.65;;;2.50;;
32760;SDS011;19126;47.472;7.850;2023-08-06T00:50:37;6.03;;;2.58;;
32760;SDS011;19126;47.472;7.850;2023-08-06T00:53:05;4.72;;;2.72;;
32760;SDS011;19126;47.472;7.850;2023-08-06T00:55:34;9.05;;;2.88;;
32760;SDS011;19126;47.472;7.850;2023-08-06T00:58:01;3.30;;;2.08;;
32760;SDS011;19126;47.472;7.850;2023-08-06T01:00:29;6.25;;;2.78;;
32760;SDS011;19126;47.472;7.850;2023-08-06T01:02:57;8.63;;;2.75;;
32760;SDS011;19126;47.472;7.850;2023-08-06T01:05:24;3.75;;;2.53;;
32760;SDS011;19126;47.472;7.850;2023-08-06T01:07:56;6.18;;;2.53;;
32760;SDS011;19126;47.472;7.850;2023-08-06T01:10:46;3.47;;;2.15;;
32760;SDS011;19126;47.472;7.850;2023-08-06T01:13:28;12.38;;;2.60;;
32760;SDS011;19126;47.472;7.850;2023-08-06T01:16:08;4.22;;;2.35;;
32760;SDS011;19126;47.472;7.850;2023-08-06T01:18:37;5.03;;;2.85;;
32760;SDS011;19126;47.472;7.850;2023-08-06T01:21:08;4.93;;;2.75;;
32760;SDS011;19126;47.472;7.850;2023-08-06T01:23:35;4.90;;;2.60;;
32760;SDS011;19126;47.472;7.850;2023-08-06T01:26:05;4.70;;;2.65;;
32760;SDS011;19126;47.472;7.850;2023-08-06T01:28:42;3.50;;;3.00;;
32760;SDS011;19126;47.472;7.850;2023-08-06T01:31:21;5.72;;;2.15;;
32760;SDS011;19126;47.472;7.850;2023-08-06T01:33:53;3.13;;;2.47;;
32760;SDS011;19126;47.472;7.850;2023-08-06T01:36:24;8.43;;;2.45;;
32760;SDS011;19126;47.472;7.850;2023-08-06T01:38:52;4.80;;;2.20;;
32760;SDS011;19126;47.472;7.850;2023-08-06T01:41:19;4.65;;;2.55;;
32760;SDS011;19126;47.472;7.850;2023-08-06T01:43:47;5.78;;;2.63;;
32760;SDS011;19126;47.472;7.850;2023-08-06T01:46:14;7.90;;;3.08;;
32760;SDS011;19126;47.472;7.850;2023-08-06T01:48:42;6.93;;;3.25;;
32760;SDS011;19126;47.472;7.850;2023-08-06T01:51:09;9.85;;;2.78;;
32760;SDS011;19126;47.472;7.850;2023-08-06T01:53:38;5.22;;;2.60;;
32760;SDS011;19126;47.472;7.850;2023-08-06T01:56:06;4.28;;;2.30;;
32760;SDS011;19126;47.472;7.850;2023-08-06T01:58:33;4.38;;;2.45;;
32760;SDS011;19126;47.472;7.850;2023-08-06T02:01:00;7.95;;;2.72;;
32760;SDS011;19126;47.472;7.850;2023-08-06T02:03:28;9.48;;;3.40;;
32760;SDS011;19126;47.472;7.850;2023-08-06T02:05:55;3.60;;;2.67;;
32760;SDS011;19126;47.472;7.850;2023-08-06T02:08:23;4.53;;;2.38;;
32760;SDS011;19126;47.472;7.850;2023-08-06T02:10:51;2.83;;;2.20;;
32760;SDS011;19126;47.472;7.850;2023-08-06T02:13:19;8.80;;;2.35;;
32760;SDS011;19126;47.472;7.850;2023-08-06T02:15:46;13.15;;;2.13;;
32760;SDS011;19126;47.472;7.850;2023-08-06T02:18:13;4.53;;;1.85;;
32760;SDS011;19126;47.472;7.850;2023-08-06T02:20:41;8.85;;;2.30;;
32760;SDS011;19126;47.472;7.850;2023-08-06T02:23:09;6.75;;;2.42;;
32760;SDS011;19126;47.472;7.850;2023-08-06T02:25:36;5.00;;;2.15;;
32760;SDS011;19126;47.472;7.850;2023-08-06T02:28:05;5.30;;;2.72;;
32760;SDS011;19126;47.472;7.850;2023-08-06T02:30:32;3.45;;;2.20;;
32760;SDS011;19126;47.472;7.850;2023-08-06T02:33:00;6.40;;;2.67;;
32760;SDS011;19126;47.472;7.850;2023-08-06T02:35:27;5.00;;;2.58;;
32760;SDS011;19126;47.472;7.850;2023-08-06T02:37:54;4.28;;;2.40;;
32760;SDS011;19126;47.472;7.850;2023-08-06T02:40:22;10.88;;;2.42;;
32760;SDS011;19126;47.472;7.850;2023-08-06T02:42:50;4.20;;;2.60;;
32760;SDS011;19126;47.472;7.850;2023-08-06T02:45:18;6.15;;;2.58;;
32760;SDS011;19126;47.472;7.850;2023-08-06T02:47:46;14.00;;;2.80;;
32760;SDS011;19126;47.472;7.850;2023-08-06T02:50:13;4.22;;;1.80;;
32760;SDS011;19126;47.472;7.850;2023-08-06T02:52:41;2.88;;;2.05;;
32760;SDS011;19126;47.472;7.850;2023-08-06T02:55:08;5.65;;;2.47;;
32760;SDS011;19126;47.472;7.850;2023-08-06T02:57:36;5.43;;;1.75;;
32760;SDS011;19126;47.472;7.850;2023-08-06T03:00:04;3.15;;;1.70;;
32760;SDS011;19126;47.472;7.850;2023-08-06T03:02:34;6.50;;;2.75;;
32760;SDS011;19126;47.472;7.850;2023-08-06T03:05:01;3.22;;;1.50;;
32760;SDS011;19126;47.472;7.850;2023-08-06T03:07:29;6.93;;;1.92;;
32760;SDS011;19126;47.472;7.850;2023-08-06T03:09:58;7.40;;;2.13;;
32760;SDS011;19126;47.472;7.850;2023-08-06T03:12:26;5.60;;;1.60;;
32760;SDS011;19126;47.472;7.850;2023-08-06T03:14:54;5.93;;;1.95;;
32760;SDS011;19126;47.472;7.850;2023-08-06T03:17:21;5.80;;;1.70;;
32760;SDS011;19126;47.472;7.850;2023-08-06T03:19:51;9.50;;;1.75;;
32760;SDS011;19126;47.472;7.850;2023-08-06T03:22:19;7.20;;;2.20;;
32760;SDS011;19126;47.472;7.850;2023-08-06T03:24:49;6.10;;;1.83;;
32760;SDS011;19126;47.472;7.850;2023-08-06T03:27:17;9.73;;;1.60;;
32760;SDS011;19126;47.472;7.850;2023-08-06T03:29:44;10.38;;;1.98;;
32760;SDS011;19126;47.472;7.850;2023-08-06T03:32:14;5.70;;;1.67;;
32760;SDS011;19126;47.472;7.850;2023-08-06T03:34:42;5.47;;;1.33;;
32760;SDS011;19126;47.472;7.850;2023-08-06T03:37:10;9.93;;;1.85;;
32760;SDS011;19126;47.472;7.850;2023-08-06T03:39:38;3.70;;;1.15;;
32760;SDS011;19126;47.472;7.850;2023-08-06T03:42:05;5.07;;;1.02;;
32760;SDS011;19126;47.472;7.850;2023-08-06T03:44:32;7.78;;;1.75;;
32760;SDS011;19126;47.472;7.850;2023-08-06T03:47:00;14.25;;;1.67;;
32760;SDS011;19126;47.472;7.850;2023-08-06T03:49:27;11.07;;;1.35;;
32760;SDS011;19126;47.472;7.850;2023-08-06T03:51:54;7.40;;;1.10;;
32760;SDS011;19126;47.472;7.850;2023-08-06T03:54:23;6.53;;;1.85;;
32760;SDS011;19126;47.472;7.850;2023-08-06T03:56:50;2.63;;;0.88;;
32760;SDS011;19126;47.472;7.850;2023-08-06T03:59:18;4.15;;;1.02;;
32760;SDS011;19126;47.472;7.850;2023-08-06T04:01:45;5.63;;;1.25;;
32760;SDS011;19126;47.472;7.850;2023-08-06T04:04:12;6.40;;;1.40;;
32760;SDS011;19126;47.472;7.850;2023-08-06T04:06:40;4.97;;;1.30;;
32760;SDS011;19126;47.472;7.850;2023-08-06T04:09:07;5.40;;;1.13;;
32760;SDS011;19126;47.472;7.850;2023-08-06T04:11:36;7.93;;;1.27;;
32760;SDS011;19126;47.472;7.850;2023-08-06T04:14:03;4.55;;;0.85;;
32760;SDS011;19126;47.472;7.850;2023-08-06T04:16:30;5.13;;;1.10;;
32760;SDS011;19126;47.472;7.850;2023-08-06T04:18:58;5.38;;;1.20;;
32760;SDS011;19126;47.472;7.850;2023-08-06T04:21:25;5.38;;;1.35;;
32760;SDS011;19126;47.472;7.850;2023-08-06T04:23:52;3.42;;;0.70;;
32760;SDS011;19126;47.472;7.850;2023-08-06T04:26:19;2.28;;;1.00;;
32760;SDS011;19126;47.472;7.850;2023-08-06T04:28:48;1.25;;;0.70;;
32760;SDS011;19126;47.472;7.850;2023-08-06T04:31:15;7.07;;;1.02;;
32760;SDS011;19126;47.472;7.850;2023-08-06T04:33:43;5.80;;;0.85;;
32760;SDS011;19126;47.472;7.850;2023-08-06T04:36:11;5.90;;;0.98;;
32760;SDS011;19126;47.472;7.850;2023-08-06T04:38:38;2.00;;;0.90;;
32760;SDS011;19126;47.472;7.850;2023-08-06T04:41:06;2.97;;;0.77;;
32760;SDS011;19126;47.472;7.850;2023-08-06T04:43:33;3.08;;;1.10;;
32760;SDS011;19126;47.472;7.850;2023-08-06T04:46:02;9.32;;;1.08;;
32760;SDS011;19126;47.472;7.850;2023-08-06T04:48:29;2.22;;;0.80;;
32760;SDS011;19126;47.472;7.850;2023-08-06T04:50:57;3.45;;;1.00;;
32760;SDS011;19126;47.472;7.850;2023-08-06T04:53:24;4.00;;;0.90;;
32760;SDS011;19126;47.472;7.850;2023-08-06T04:55:51;6.72;;;1.00;;
32760;SDS011;19126;47.472;7.850;2023-08-06T04:58:19;4.25;;;1.20;;
32760;SDS011;19126;47.472;7.850;2023-08-06T05:00:46;2.45;;;1.02;;
32760;SDS011;19126;47.472;7.850;2023-08-06T05:03:15;6.28;;;0.85;;
32760;SDS011;19126;47.472;7.850;2023-08-06T05:05:42;3.03;;;1.17;;
32760;SDS011;19126;47.472;7.850;2023-08-06T05:08:13;5.22;;;0.98;;
32760;SDS011;19126;47.472;7.850;2023-08-06T05:10:42;5.53;;;0.95;;
32760;SDS011;19126;47.472;7.850;2023-08-06T05:13:10;2.72;;;0.80;;
32760;SDS011;19126;47.472;7.850;2023-08-06T05:15:37;7.00;;;1.20;;
32760;SDS011;19126;47.472;7.850;2023-08-06T05:18:07;10.75;;;1.38;;
32760;SDS011;19126;47.472;7.850;2023-08-06T05:20:37;4.20;;;0.80;;
32760;SDS011;19126;47.472;7.850;2023-08-06T05:23:04;7.53;;;1.52;;
32760;SDS011;19126;47.472;7.850;2023-08-06T05:25:31;2.90;;;0.73;;
32760;SDS011;19126;47.472;7.850;2023-08-06T05:28:01;2.95;;;0.80;;
32760;SDS011;19126;47.472;7.850;2023-08-06T05:30:28;8.93;;;1.38;;
32760;SDS011;19126;47.472;7.850;2023-08-06T05:32:56;8.88;;;1.08;;
32760;SDS011;19126;47.472;7.850;2023-08-06T05:35:23;4.63;;;0.95;;
32760;SDS011;19126;47.472;7.850;2023-08-06T05:37:52;3.72;;;0.98;;
32760;SDS011;19126;47.472;7.850;2023-08-06T05:40:20;7.90;;;1.30;;
32760;SDS011;19126;47.472;7.850;2023-08-06T05:42:47;3.08;;;1.30;;
32760;SDS011;19126;47.472;7.850;2023-08-06T05:45:14;3.35;;;0.80;;
32760;SDS011;19126;47.472;7.850;2023-08-06T05:47:42;3.05;;;0.57;;
32760;SDS011;19126;47.472;7.850;2023-08-06T05:50:09;2.90;;;0.80;;
32760;SDS011;19126;47.472;7.850;2023-08-06T05:52:36;1.50;;;0.98;;
32760;SDS011;19126;47.472;7.850;2023-08-06T05:55:06;7.57;;;1.00;;
32760;SDS011;19126;47.472;7.850;2023-08-06T05:57:34;2.58;;;1.10;;
32760;SDS011;19126;47.472;7.850;2023-08-06T06:00:01;4.68;;;1.30;;
32760;SDS011;19126;47.472;7.850;2023-08-06T06:02:31;6.78;;;1.23;;
32760;SDS011;19126;47.472;7.850;2023-08-06T06:04:58;5.45;;;0.88;;
32760;SDS011;19126;47.472;7.850;2023-08-06T06:07:25;5.38;;;0.90;;
32760;SDS011;19126;47.472;7.850;2023-08-06T06:09:53;4.20;;;0.77;;
32760;SDS011;19126;47.472;7.850;2023-08-06T06:12:21;3.40;;;0.90;;
32760;SDS011;19126;47.472;7.850;2023-08-06T06:14:50;2.85;;;0.65;;
32760;SDS011;19126;47.472;7.850;2023-08-06T06:17:18;2.40;;;0.80;;
32760;SDS011;19126;47.472;7.850;2023-08-06T06:19:45;4.53;;;1.02;;
32760;SDS011;19126;47.472;7.850;2023-08-06T06:22:13;6.20;;;1.05;;
32760;SDS011;19126;47.472;7.850;2023-08-06T06:24:41;2.95;;;1.00;;
32760;SDS011;19126;47.472;7.850;2023-08-06T06:27:08;7.30;;;0.90;;
32760;SDS011;19126;47.472;7.850;2023-08-06T06:29:37;7.70;;;1.23;;
32760;SDS011;19126;47.472;7.850;2023-08-06T06:32:05;4.55;;;0.60;;
32760;SDS011;19126;47.472;7.850;2023-08-06T06:34:33;8.20;;;0.85;;
32760;SDS011;19126;47.472;7.850;2023-08-06T06:37:01;8.35;;;0.80;;
32760;SDS011;19126;47.472;7.850;2023-08-06T06:39:28;3.47;;;0.77;;
32760;SDS011;19126;47.472;7.850;2023-08-06T06:41:55;1.88;;;0.90;;
32760;SDS011;19126;47.472;7.850;2023-08-06T06:44:23;4.30;;;1.38;;
32760;SDS011;19126;47.472;7.850;2023-08-06T06:46:52;1.42;;;0.50;;
32760;SDS011;19126;47.472;7.850;2023-08-06T06:49:19;7.68;;;1.50;;
32760;SDS011;19126;47.472;7.850;2023-08-06T06:51:46;2.60;;;0.55;;
32760;SDS011;19126;47.472;7.850;2023-08-06T06:54:14;4.45;;;0.90;;
32760;SDS011;19126;47.472;7.850;2023-08-06T06:56:41;5.22;;;0.60;;
32760;SDS011;19126;47.472;7.850;2023-08-06T06:59:08;0.55;;;0.50;;
32760;SDS011;19126;47.472;7.850;2023-08-06T07:01:36;2.40;;;0.50;;
32760;SDS011;19126;47.472;7.850;2023-08-06T07:04:04;3.20;;;0.60;;
32760;SDS011;19126;47.472;7.850;2023-08-06T07:06:32;1.38;;;0.40;;
32760;SDS011;19126;47.472;7.850;2023-08-06T07:08:59;1.30;;;0.70;;
32760;SDS011;19126;47.472;7.850;2023-08-06T07:11:26;1.25;;;0.50;;
32760;SDS011;19126;47.472;7.850;2023-08-06T07:13:55;0.80;;;0.50;;
32760;SDS011;19126;47.472;7.850;2023-08-06T07:16:24;0.65;;;0.40;;
32760;SDS011;19126;47.472;7.850;2023-08-06T07:18:52;2.92;;;0.50;;
32760;SDS011;19126;47.472;7.850;2023-08-06T07:21:22;1.55;;;0.55;;
32760;SDS011;19126;47.472;7.850;2023-08-06T07:23:49;0.88;;;0.45;;
32760;SDS011;19126;47.472;7.850;2023-08-06T07:26:16;3.40;;;0.40;;
32760;SDS011;19126;47.472;7.850;2023-08-06T07:28:44;1.85;;;0.30;;
32760;SDS011;19126;47.472;7.850;2023-08-06T07:31:11;0.80;;;0.40;;
32760;SDS011;19126;47.472;7.850;2023-08-06T07:33:39;2.15;;;0.30;;
32760;SDS011;19126;47.472;7.850;2023-08-06T07:36:11;1.20;;;0.50;;
32760;SDS011;19126;47.472;7.850;2023-08-06T07:38:42;0.25;;;0.25;;
32760;SDS011;19126;47.472;7.850;2023-08-06T07:41:09;1.08;;;0.40;;
32760;SDS011;19126;47.472;7.850;2023-08-06T07:43:36;2.30;;;0.28;;
32760;SDS011;19126;47.472;7.850;2023-08-06T07:46:04;0.40;;;0.40;;
32760;SDS011;19126;47.472;7.850;2023-08-06T07:48:31;0.90;;;0.30;;
32760;SDS011;19126;47.472;7.850;2023-08-06T07:50:58;0.57;;;0.40;;
32760;SDS011;19126;47.472;7.850;2023-08-06T07:53:26;0.93;;;0.40;;
32760;SDS011;19126;47.472;7.850;2023-08-06T07:55:56;0.63;;;0.30;;
32760;SDS011;19126;47.472;7.850;2023-08-06T07:58:24;0.88;;;0.60;;
32760;SDS011;19126;47.472;7.850;2023-08-06T08:00:51;1.02;;;0.57;;
32760;SDS011;19126;47.472;7.850;2023-08-06T08:03:19;1.95;;;0.30;;
32760;SDS011;19126;47.472;7.850;2023-08-06T08:05:46;0.30;;;0.30;;
32760;SDS011;19126;47.472;7.850;2023-08-06T08:08:13;0.40;;;0.40;;
32760;SDS011;19126;47.472;7.850;2023-08-06T08:10:41;0.50;;;0.32;;
32760;SDS011;19126;47.472;7.850;2023-08-06T08:13:10;0.32;;;0.30;;
32760;SDS011;19126;47.472;7.850;2023-08-06T08:15:37;0.30;;;0.30;;
32760;SDS011;19126;47.472;7.850;2023-08-06T08:18:06;0.75;;;0.47;;
32760;SDS011;19126;47.472;7.850;2023-08-06T08:20:34;0.30;;;0.30;;
32760;SDS011;19126;47.472;7.850;2023-08-06T08:23:01;0.98;;;0.25;;
32760;SDS011;19126;47.472;7.850;2023-08-06T08:25:28;2.60;;;0.22;;
32760;SDS011;19126;47.472;7.850;2023-08-06T08:27:56;0.52;;;0.30;;
32760;SDS011;19126;47.472;7.850;2023-08-06T08:30:25;1.10;;;0.98;;
32760;SDS011;19126;47.472;7.850;2023-08-06T08:32:53;0.30;;;0.30;;
32760;SDS011;19126;47.472;7.850;2023-08-06T08:35:20;0.43;;;0.30;;
32760;SDS011;19126;47.472;7.850;2023-08-06T08:37:47;0.40;;;0.40;;
32760;SDS011;19126;47.472;7.850;2023-08-06T08:40:15;1.55;;;0.30;;
32760;SDS011;19126;47.472;7.850;2023-08-06T08:42:43;0.63;;;0.32;;
32760;SDS011;19126;47.472;7.850;2023-08-06T08:45:11;0.85;;;0.40;;
32760;SDS011;19126;47.472;7.850;2023-08-06T08:47:41;0.60;;;0.43;;
32760;SDS011;19126;47.472;7.850;2023-08-06T08:50:10;0.50;;;0.35;;
32760;SDS011;19126;47.472;7.850;2023-08-06T08:52:39;0.80;;;0.20;;
32760;SDS011;19126;47.472;7.850;2023-08-06T08:55:08;0.30;;;0.30;;
32760;SDS011;19126;47.472;7.850;2023-08-06T08:57:36;0.20;;;0.20;;
32760;SDS011;19126;47.472;7.850;2023-08-06T09:00:03;0.55;;;0.30;;
32760;SDS011;19126;47.472;7.850;2023-08-06T09:02:32;0.95;;;0.40;;
32760;SDS011;19126;47.472;7.850;2023-08-06T09:05:01;0.75;;;0.40;;
32760;SDS011;19126;47.472;7.850;2023-08-06T09:07:32;0.20;;;0.20;;
32760;SDS011;19126;47.472;7.850;2023-08-06T09:10:08;0.20;;;0.20;;
32760;SDS011;19126;47.472;7.850;2023-08-06T09:12:38;0.65;;;0.47;;
32760;SDS011;19126;47.472;7.850;2023-08-06T09:15:06;3.13;;;0.30;;
32760;SDS011;19126;47.472;7.850;2023-08-06T09:17:35;0.32;;;0.30;;
32760;SDS011;19126;47.472;7.850;2023-08-06T09:20:11;0.80;;;0.60;;
32760;SDS011;19126;47.472;7.850;2023-08-06T09:22:39;0.30;;;0.30;;
32760;SDS011;19126;47.472;7.850;2023-08-06T09:25:07;0.73;;;0.30;;
32760;SDS011;19126;47.472;7.850;2023-08-06T09:27:35;0.77;;;0.38;;
32760;SDS011;19126;47.472;7.850;2023-08-06T09:30:04;0.40;;;0.40;;
32760;SDS011;19126;47.472;7.850;2023-08-06T09:32:44;1.33;;;0.40;;
32760;SDS011;19126;47.472;7.850;2023-08-06T09:35:16;0.73;;;0.32;;
32760;SDS011;19126;47.472;7.850;2023-08-06T09:37:44;0.87;;;0.50;;
32760;SDS011;19126;47.472;7.850;2023-08-06T09:40:23;0.20;;;0.20;;
32760;SDS011;19126;47.472;7.850;2023-08-06T09:42:52;0.20;;;0.20;;
32760;SDS011;19126;47.472;7.850;2023-08-06T09:45:20;0.50;;;0.40;;
32760;SDS011;19126;47.472;7.850;2023-08-06T09:47:48;0.82;;;0.32;;
32760;SDS011;19126;47.472;7.850;2023-08-06T09:50:18;0.30;;;0.30;;
32760;SDS011;19126;47.472;7.850;2023-08-06T09:52:46;0.30;;;0.25;;
32760;SDS011;19126;47.472;7.850;2023-08-06T09:55:14;0.30;;;0.30;;
32760;SDS011;19126;47.472;7.850;2023-08-06T09:57:43;0.80;;;0.40;;
32760;SDS011;19126;47.472;7.850;2023-08-06T10:00:12;0.40;;;0.30;;
32760;SDS011;19126;47.472;7.850;2023-08-06T10:02:40;1.38;;;0.43;;
32760;SDS011;19126;47.472;7.850;2023-08-06T10:05:07;0.22;;;0.22;;
32760;SDS011;19126;47.472;7.850;2023-08-06T10:07:36;0.20;;;0.20;;
32760;SDS011;19126;47.472;7.850;2023-08-06T10:10:05;0.20;;;0.20;;
32760;SDS011;19126;47.472;7.850;2023-08-06T10:12:34;0.30;;;0.30;;
32760;SDS011;19126;47.472;7.850;2023-08-06T10:15:06;0.52;;;0.43;;
32760;SDS011;19126;47.472;7.850;2023-08-06T10:17:37;0.40;;;0.40;;
32760;SDS011;19126;47.472;7.850;2023-08-06T10:20:08;0.50;;;0.20;;
32760;SDS011;19126;47.472;7.850;2023-08-06T10:22:38;0.22;;;0.22;;
32760;SDS011;19126;47.472;7.850;2023-08-06T10:25:10;0.30;;;0.30;;
32760;SDS011;19126;47.472;7.850;2023-08-06T10:27:53;0.65;;;0.47;;
32760;SDS011;19126;47.472;7.850;2023-08-06T10:30:21;2.90;;;0.55;;
32760;SDS011;19126;47.472;7.850;2023-08-06T10:32:54;0.40;;;0.40;;
32760;SDS011;19126;47.472;7.850;2023-08-06T10:35:34;0.52;;;0.20;;
32760;SDS011;19126;47.472;7.850;2023-08-06T10:38:10;2.50;;;0.30;;
32760;SDS011;19126;47.472;7.850;2023-08-06T10:40:39;0.30;;;0.30;;
32760;SDS011;19126;47.472;7.850;2023-08-06T10:43:08;3.40;;;0.38;;
32760;SDS011;19126;47.472;7.850;2023-08-06T10:45:53;1.63;;;0.38;;
32760;SDS011;19126;47.472;7.850;2023-08-06T10:48:28;0.65;;;0.65;;
32760;SDS011;19126;47.472;7.850;2023-08-06T10:50:56;0.40;;;0.40;;
32760;SDS011;19126;47.472;7.850;2023-08-06T10:53:27;0.82;;;0.43;;
32760;SDS011;19126;47.472;7.850;2023-08-06T10:55:55;0.30;;;0.30;;
32760;SDS011;19126;47.472;7.850;2023-08-06T10:58:22;0.60;;;0.30;;
32760;SDS011;19126;47.472;7.850;2023-08-06T11:00:50;0.30;;;0.30;;
32760;SDS011;19126;47.472;7.850;2023-08-06T11:03:17;1.05;;;0.52;;
32760;SDS011;19126;47.472;7.850;2023-08-06T11:05:48;0.40;;;0.40;;
32760;SDS011;19126;47.472;7.850;2023-08-06T11:08:22;0.30;;;0.30;;
32760;SDS011;19126;47.472;7.850;2023-08-06T11:10:52;0.50;;;0.50;;
32760;SDS011;19126;47.472;7.850;2023-08-06T11:13:20;1.10;;;0.70;;
32760;SDS011;19126;47.472;7.850;2023-08-06T11:15:48;0.95;;;0.43;;
32760;SDS011;19126;47.472;7.850;2023-08-06T11:18:15;0.75;;;0.40;;
32760;SDS011;19126;47.472;7.850;2023-08-06T11:20:43;0.55;;;0.50;;
32760;SDS011;19126;47.472;7.850;2023-08-06T11:23:11;5.63;;;0.70;;
32760;SDS011;19126;47.472;7.850;2023-08-06T11:25:43;0.50;;;0.50;;
32760;SDS011;19126;47.472;7.850;2023-08-06T11:30:40;1.75;;;0.70;;
32760;SDS011;19126;47.472;7.850;2023-08-06T11:33:07;0.50;;;0.50;;
32760;SDS011;19126;47.472;7.850;2023-08-06T11:35:35;0.30;;;0.30;;
32760;SDS011;19126;47.472;7.850;2023-08-06T11:38:03;1.67;;;0.60;;
32760;SDS011;19126;47.472;7.850;2023-08-06T11:40:31;1.10;;;0.55;;
32760;SDS011;19126;47.472;7.850;2023-08-06T11:42:59;1.42;;;0.50;;
32760;SDS011;19126;47.472;7.850;2023-08-06T11:45:27;0.50;;;0.50;;
32760;SDS011;19126;47.472;7.850;2023-08-06T11:47:55;0.50;;;0.50;;
32760;SDS011;19126;47.472;7.850;2023-08-06T11:50:23;1.17;;;0.45;;
32760;SDS011;19126;47.472;7.850;2023-08-06T11:52:52;0.70;;;0.65;;
32760;SDS011;19126;47.472;7.850;2023-08-06T11:55:23;0.80;;;0.77;;
32760;SDS011;19126;47.472;7.850;2023-08-06T11:57:51;3.88;;;0.40;;
32760;SDS011;19126;47.472;7.850;2023-08-06T12:00:18;0.60;;;0.60;;
32760;SDS011;19126;47.472;7.850;2023-08-06T12:02:49;1.67;;;0.85;;
32760;SDS011;19126;47.472;7.850;2023-08-06T12:05:18;2.65;;;0.60;;
32760;SDS011;19126;47.472;7.850;2023-08-06T12:07:49;2.22;;;1.10;;
32760;SDS011;19126;47.472;7.850;2023-08-06T12:10:18;1.80;;;0.80;;
32760;SDS011;19126;47.472;7.850;2023-08-06T12:12:46;2.15;;;0.88;;
32760;SDS011;19126;47.472;7.850;2023-08-06T12:15:15;1.85;;;0.70;;
32760;SDS011;19126;47.472;7.850;2023-08-06T12:17:42;0.75;;;0.70;;
32760;SDS011;19126;47.472;7.850;2023-08-06T12:20:11;1.52;;;0.80;;
32760;SDS011;19126;47.472;7.850;2023-08-06T12:22:40;2.13;;;1.15;;
32760;SDS011;19126;47.472;7.850;2023-08-06T12:25:08;1.30;;;1.20;;
32760;SDS011;19126;47.472;7.850;2023-08-06T12:27:38;1.85;;;1.00;;
32760;SDS011;19126;47.472;7.850;2023-08-06T12:30:06;1.08;;;0.88;;
32760;SDS011;19126;47.472;7.850;2023-08-06T12:32:34;3.10;;;1.27;;
32760;SDS011;19126;47.472;7.850;2023-08-06T12:35:02;2.30;;;1.67;;
32760;SDS011;19126;47.472;7.850;2023-08-06T12:37:33;1.20;;;0.90;;
32760;SDS011;19126;47.472;7.850;2023-08-06T12:40:03;2.08;;;1.42;;
32760;SDS011;19126;47.472;7.850;2023-08-06T12:42:32;2.20;;;1.13;;
32760;SDS011;19126;47.472;7.850;2023-08-06T12:44:59;1.77;;;1.25;;
32760;SDS011;19126;47.472;7.850;2023-08-06T12:47:27;5.05;;;1.25;;
32760;SDS011;19126;47.472;7.850;2023-08-06T12:49:55;3.72;;;1.45;;
32760;SDS011;19126;47.472;7.850;2023-08-06T12:52:22;3.22;;;1.17;;
32760;SDS011;19126;47.472;7.850;2023-08-06T12:54:51;4.00;;;1.70;;
32760;SDS011;19126;47.472;7.850;2023-08-06T12:57:18;2.45;;;1.30;;
32760;SDS011;19126;47.472;7.850;2023-08-06T12:59:46;2.70;;;1.42;;
32760;SDS011;19126;47.472;7.850;2023-08-06T13:02:14;1.17;;;0.85;;
32760;SDS011;19126;47.472;7.850;2023-08-06T13:04:41;2.92;;;1.23;;
32760;SDS011;19126;47.472;7.850;2023-08-06T13:07:08;2.53;;;1.55;;
32760;SDS011;19126;47.472;7.850;2023-08-06T13:09:36;4.20;;;0.90;;
32760;SDS011;19126;47.472;7.850;2023-08-06T13:12:05;1.45;;;1.30;;
32760;SDS011;19126;47.472;7.850;2023-08-06T13:14:32;4.28;;;1.23;;
32760;SDS011;19126;47.472;7.850;2023-08-06T13:17:00;3.92;;;1.50;;
32760;SDS011;19126;47.472;7.850;2023-08-06T13:19:27;1.17;;;0.88;;
32760;SDS011;19126;47.472;7.850;2023-08-06T13:21:59;2.90;;;1.08;;
32760;SDS011;19126;47.472;7.850;2023-08-06T13:24:32;2.50;;;1.38;;
32760;SDS011;19126;47.472;7.850;2023-08-06T13:26:59;3.03;;;1.10;;
32760;SDS011;19126;47.472;7.850;2023-08-06T13:29:29;1.92;;;0.98;;
32760;SDS011;19126;47.472;7.850;2023-08-06T13:31:56;3.72;;;1.20;;
32760;SDS011;19126;47.472;7.850;2023-08-06T13:34:24;2.60;;;1.20;;
32760;SDS011;19126;47.472;7.850;2023-08-06T13:36:51;1.15;;;1.00;;
32760;SDS011;19126;47.472;7.850;2023-08-06T13:39:18;2.15;;;1.23;;
32760;SDS011;19126;47.472;7.850;2023-08-06T13:41:46;5.05;;;1.02;;
32760;SDS011;19126;47.472;7.850;2023-08-06T13:44:13;2.10;;;1.30;;
32760;SDS011;19126;47.472;7.850;2023-08-06T13:46:42;3.92;;;1.45;;
32760;SDS011;19126;47.472;7.850;2023-08-06T13:49:09;3.05;;;1.15;;
32760;SDS011;19126;47.472;7.850;2023-08-06T13:51:37;1.13;;;1.00;;
32760;SDS011;19126;47.472;7.850;2023-08-06T13:54:04;1.67;;;1.30;;
32760;SDS011;19126;47.472;7.850;2023-08-06T13:56:32;6.75;;;1.25;;
32760;SDS011;19126;47.472;7.850;2023-08-06T13:59:02;2.70;;;1.23;;
32760;SDS011;19126;47.472;7.850;2023-08-06T14:01:30;1.75;;;0.85;;
32760;SDS011;19126;47.472;7.850;2023-08-06T14:03:58;1.73;;;1.25;;
32760;SDS011;19126;47.472;7.850;2023-08-06T14:06:26;3.22;;;1.25;;
32760;SDS011;19126;47.472;7.850;2023-08-06T14:08:53;3.03;;;1.20;;
32760;SDS011;19126;47.472;7.850;2023-08-06T14:11:20;4.68;;;1.60;;
32760;SDS011;19126;47.472;7.850;2023-08-06T14:13:48;5.65;;;1.30;;
32760;SDS011;19126;47.472;7.850;2023-08-06T14:16:15;1.92;;;1.10;;
32760;SDS011;19126;47.472;7.850;2023-08-06T14:18:43;4.82;;;1.40;;
32760;SDS011;19126;47.472;7.850;2023-08-06T14:21:11;3.55;;;1.40;;
32760;SDS011;19126;47.472;7.850;2023-08-06T14:23:39;7.88;;;1.42;;
32760;SDS011;19126;47.472;7.850;2023-08-06T14:26:07;1.52;;;1.13;;
32760;SDS011;19126;47.472;7.850;2023-08-06T14:28:35;2.28;;;1.25;;
32760;SDS011;19126;47.472;7.850;2023-08-06T14:31:03;1.70;;;1.20;;
32760;SDS011;19126;47.472;7.850;2023-08-06T14:33:30;2.70;;;1.25;;
32760;SDS011;19126;47.472;7.850;2023-08-06T14:35:57;3.83;;;1.42;;
32760;SDS011;19126;47.472;7.850;2023-08-06T14:38:26;3.90;;;1.55;;
32760;SDS011;19126;47.472;7.850;2023-08-06T14:40:53;2.95;;;1.40;;
32760;SDS011;19126;47.472;7.850;2023-08-06T14:43:21;3.60;;;1.65;;
32760;SDS011;19126;47.472;7.850;2023-08-06T14:45:48;3.33;;;1.33;;
32760;SDS011;19126;47.472;7.850;2023-08-06T14:48:15;3.50;;;1.20;;
32760;SDS011;19126;47.472;7.850;2023-08-06T14:50:43;3.67;;;1.17;;
32760;SDS011;19126;47.472;7.850;2023-08-06T14:53:10;2.13;;;1.17;;
32760;SDS011;19126;47.472;7.850;2023-08-06T14:55:39;1.60;;;1.27;;
32760;SDS011;19126;47.472;7.850;2023-08-06T14:58:08;2.20;;;1.20;;